< < Back
Terminal Aerodrome Forecast


Current Version              Previous Versions:   1  2  3  4  5  6  7  8  9  

Terminal Aerodrome Forecast

475
FTUS42 KJAX 232300
TAFJAX
TAF
KJAX 232331Z 2400/2424 VRB03KT P6SM FEW060
     FM241500 11007KT P6SM SCT050
     FM241900 12010KT P6SM BKN050=



Latest METAR

433
SAUS80 KWBC 232300
MTRJAX
METAR KJAX 232256Z 30005KT 10SM FEW055 28/16 A2985 RMK AO2 SLP108
T02780156


USA.gov is the U.S. government's official web portal to all federal, state and local government web resources and services.